Ingeniero Jacobacci, Argentina
Current Conditions -  °F | °C
As of 2:00 PM on Saturday 22 Nov 2014 (Local Time) from SAZS Reporting Station
Scattered Clouds Scattered Clouds  
Wind Chill: 63°   Ceiling: Unl
Heat Index: 63°   Visibility: 6mi
Dew Point: 34°   Wind: 20mph
Humidity: 34%   Direction: 320°NW
Pressure: 29.91"   Gusts: NA
Location:  41.43°S, 69.47°W
Report Text: SAZS 221700Z 32017KT 9999 FEW050 SCT100 17/01 Q1013
Loading
Personal Weather Stations






























Interactive Weather Map New forecast layout! Learn more

10-Day Weather Forecast

Advertisements
Track Severe Weather on mobile